createdAt,value
2019-02-19T00:00:01.000Z,0.312
2019-02-19T00:01:02.000Z,0.312
2019-02-19T00:02:01.000Z,0.25
2019-02-19T00:03:01.000Z,0.25
2019-02-19T00:04:01.000Z,0.187
2019-02-19T00:05:01.000Z,0.125
2019-02-19T00:06:02.000Z,0.062
2019-02-19T00:07:01.000Z,0.187
2019-02-19T00:08:01.000Z,0.312
2019-02-19T00:09:01.000Z,0.375
2019-02-19T00:10:01.000Z,0.562
2019-02-19T00:11:01.000Z,0.687
2019-02-19T00:12:01.000Z,0.687
2019-02-19T00:13:02.000Z,0.625
2019-02-19T00:14:01.000Z,0.562
2019-02-19T00:15:01.000Z,0.437
2019-02-19T00:16:01.000Z,0.437
2019-02-19T00:17:01.000Z,0.437
2019-02-19T00:18:01.000Z,0.437
2019-02-19T00:19:01.000Z,0.562
2019-02-19T00:20:01.000Z,0.687
2019-02-19T00:21:02.000Z,0.687
2019-02-19T00:22:01.000Z,0.625
2019-02-19T00:23:01.000Z,0.5
2019-02-19T00:24:01.000Z,0.5
2019-02-19T00:25:01.000Z,0.5
2019-02-19T00:26:02.000Z,0.437
2019-02-19T00:27:01.000Z,0.437
2019-02-19T00:28:02.000Z,0.437
2019-02-19T00:29:01.000Z,0.5
2019-02-19T00:30:01.000Z,0.437
2019-02-19T00:31:02.000Z,0.375
2019-02-19T00:32:01.000Z,0.375
2019-02-19T00:33:01.000Z,0.437
2019-02-19T00:34:02.000Z,0.5
2019-02-19T00:35:02.000Z,0.437
2019-02-19T00:36:01.000Z,0.5
2019-02-19T00:37:02.000Z,0.5
2019-02-19T00:38:01.000Z,0.562
2019-02-19T00:39:02.000Z,0.562
2019-02-19T00:40:01.000Z,0.5
2019-02-19T00:41:01.000Z,0.437
2019-02-19T00:42:01.000Z,0.375
2019-02-19T00:43:01.000Z,0.375
2019-02-19T00:44:02.000Z,0.375
2019-02-19T00:45:01.000Z,0.312
2019-02-19T00:46:02.000Z,0.25
2019-02-19T00:47:01.000Z,0.25
2019-02-19T00:48:01.000Z,0.187
2019-02-19T00:49:02.000Z,0.187
2019-02-19T00:50:01.000Z,0.125
2019-02-19T00:51:01.000Z,0.062
2019-02-19T00:52:01.000Z,0.062
2019-02-19T00:53:01.000Z,0
2019-02-19T00:54:01.000Z,0
2019-02-19T00:55:01.000Z,-0.125
2019-02-19T00:56:01.000Z,-0.187
2019-02-19T00:57:01.000Z,-0.312
2019-02-19T00:58:01.000Z,-0.312
2019-02-19T00:59:01.000Z,-0.312
2019-02-19T01:00:01.000Z,-0.312
2019-02-19T01:01:01.000Z,-0.312
2019-02-19T01:02:01.000Z,-0.375
2019-02-19T01:03:01.000Z,-0.375
2019-02-19T01:04:02.000Z,-0.437
2019-02-19T01:05:01.000Z,-0.375
2019-02-19T01:06:02.000Z,-0.375
2019-02-19T01:07:01.000Z,-0.375
2019-02-19T01:08:01.000Z,-0.312
2019-02-19T01:09:01.000Z,-0.312
2019-02-19T01:10:02.000Z,-0.312
2019-02-19T01:11:01.000Z,-0.25
2019-02-19T01:12:01.000Z,-0.187
2019-02-19T01:13:01.000Z,-0.125
2019-02-19T01:14:01.000Z,-0.125
2019-02-19T01:15:01.000Z,-0.125
2019-02-19T01:16:01.000Z,-0.125
2019-02-19T01:17:01.000Z,-0.062
2019-02-19T01:18:02.000Z,-0.062
2019-02-19T01:19:02.000Z,-0.062
2019-02-19T01:20:01.000Z,-0.187
2019-02-19T01:21:01.000Z,-0.25
2019-02-19T01:22:02.000Z,-0.375
2019-02-19T01:23:01.000Z,-0.437
2019-02-19T01:24:01.000Z,-0.437
2019-02-19T01:25:01.000Z,-0.5
2019-02-19T01:26:02.000Z,-0.562
2019-02-19T01:27:01.000Z,-0.562
2019-02-19T01:28:01.000Z,-0.562
2019-02-19T01:29:02.000Z,-0.625
2019-02-19T01:30:01.000Z,-0.625
2019-02-19T01:31:02.000Z,-0.687
2019-02-19T01:32:01.000Z,-0.75
2019-02-19T01:33:01.000Z,-0.812
2019-02-19T01:34:02.000Z,-0.812
2019-02-19T01:35:01.000Z,-0.812
2019-02-19T01:36:01.000Z,-0.875
2019-02-19T01:37:01.000Z,-0.875
2019-02-19T01:38:01.000Z,-0.875
2019-02-19T01:39:02.000Z,-0.937
2019-02-19T01:40:01.000Z,-0.937
2019-02-19T01:41:02.000Z,-1
2019-02-19T01:42:01.000Z,-1
2019-02-19T01:43:01.000Z,-1
2019-02-19T01:44:02.000Z,-1.062
2019-02-19T01:45:01.000Z,-1.062
2019-02-19T01:46:02.000Z,-1.062
2019-02-19T01:48:01.000Z,-1.062
2019-02-19T01:49:01.000Z,-1.062
2019-02-19T01:50:02.000Z,-1.062
2019-02-19T01:51:01.000Z,-1
2019-02-19T01:52:02.000Z,-0.937
2019-02-19T01:53:01.000Z,-0.937
2019-02-19T01:54:01.000Z,-0.875
2019-02-19T01:55:01.000Z,-0.812
2019-02-19T01:56:01.000Z,-0.562
2019-02-19T01:57:02.000Z,-0.562
2019-02-19T01:58:01.000Z,-0.562
2019-02-19T01:59:01.000Z,-0.625
2019-02-19T02:00:02.000Z,-0.625
2019-02-19T02:01:01.000Z,-0.625
2019-02-19T02:02:02.000Z,-0.625
2019-02-19T02:03:01.000Z,-0.625
2019-02-19T02:04:01.000Z,-0.687
2019-02-19T02:05:01.000Z,-0.687
2019-02-19T02:06:01.000Z,-0.625
2019-02-19T02:07:01.000Z,-0.562
2019-02-19T02:08:01.000Z,-0.562
2019-02-19T02:09:02.000Z,-0.562
2019-02-19T02:10:01.000Z,-0.5
2019-02-19T02:11:01.000Z,-0.5
2019-02-19T02:12:02.000Z,-0.5
2019-02-19T02:13:01.000Z,-0.437
2019-02-19T02:14:01.000Z,-0.437
2019-02-19T02:15:02.000Z,-0.437
2019-02-19T02:16:01.000Z,-0.375
2019-02-19T02:17:02.000Z,-0.375
2019-02-19T02:18:01.000Z,-0.375
2019-02-19T02:19:01.000Z,-0.375
2019-02-19T02:20:02.000Z,-0.375
2019-02-19T02:21:01.000Z,-0.375
2019-02-19T02:22:02.000Z,-0.375
2019-02-19T02:23:01.000Z,-0.375
2019-02-19T02:24:01.000Z,-0.312
2019-02-19T02:25:01.000Z,-0.312
2019-02-19T02:26:01.000Z,-0.312
2019-02-19T02:27:01.000Z,-0.25
2019-02-19T02:28:01.000Z,-0.187
2019-02-19T02:29:01.000Z,-0.125
2019-02-19T02:30:01.000Z,-0.125
2019-02-19T02:31:02.000Z,-0.125
2019-02-19T02:32:01.000Z,-0.062
2019-02-19T02:33:01.000Z,-0.062
2019-02-19T02:34:02.000Z,0
2019-02-19T02:35:01.000Z,0
2019-02-19T02:36:01.000Z,0.062
2019-02-19T02:37:01.000Z,0.125
2019-02-19T02:38:02.000Z,0.187
2019-02-19T02:39:01.000Z,0.187
2019-02-19T02:40:01.000Z,0.25
2019-02-19T02:41:01.000Z,0.25
2019-02-19T02:42:01.000Z,0.25
2019-02-19T02:43:02.000Z,0.187
2019-02-19T02:44:01.000Z,0.125
2019-02-19T02:45:01.000Z,0.125
2019-02-19T02:46:02.000Z,0.062
2019-02-19T02:47:01.000Z,0.062
2019-02-19T02:48:02.000Z,0.062
2019-02-19T02:49:01.000Z,0
2019-02-19T02:50:01.000Z,0
2019-02-19T02:51:02.000Z,-0.062
2019-02-19T02:52:01.000Z,-0.062
2019-02-19T02:53:01.000Z,-0.062
2019-02-19T02:54:01.000Z,-0.062
2019-02-19T02:55:01.000Z,-0.125
2019-02-19T02:56:01.000Z,-0.062
2019-02-19T02:57:01.000Z,-0.062
2019-02-19T02:58:01.000Z,-0.125
2019-02-19T02:59:01.000Z,-0.062
2019-02-19T03:00:01.000Z,-0.062
2019-02-19T03:01:02.000Z,-0.062
2019-02-19T03:02:01.000Z,-0.062
2019-02-19T03:03:01.000Z,0
2019-02-19T03:04:02.000Z,0.062
2019-02-19T03:05:01.000Z,0.125
2019-02-19T03:06:01.000Z,0.187
2019-02-19T03:07:01.000Z,0.187
2019-02-19T03:08:01.000Z,0.312
2019-02-19T03:09:02.000Z,0.375
2019-02-19T03:10:01.000Z,0.375
2019-02-19T03:11:02.000Z,0.437
2019-02-19T03:12:01.000Z,0.5
2019-02-19T03:13:01.000Z,0.562
2019-02-19T03:14:01.000Z,0.625
2019-02-19T03:15:02.000Z,0.625
2019-02-19T03:16:01.000Z,0.687
2019-02-19T03:17:01.000Z,0.687
2019-02-19T03:18:02.000Z,0.75
2019-02-19T03:19:01.000Z,0.75
2019-02-19T03:20:01.000Z,0.75
2019-02-19T03:21:02.000Z,0.75
2019-02-19T03:22:01.000Z,0.875
2019-02-19T03:23:01.000Z,0.875
2019-02-19T03:24:02.000Z,1
2019-02-19T03:25:01.000Z,1
2019-02-19T03:26:01.000Z,1
2019-02-19T03:27:01.000Z,1.062
2019-02-19T03:28:01.000Z,1.125
2019-02-19T03:29:02.000Z,1.187
2019-02-19T03:30:01.000Z,1.187
2019-02-19T03:31:01.000Z,1.187
2019-02-19T03:32:02.000Z,1.187
2019-02-19T03:33:01.000Z,1.25
2019-02-19T03:34:02.000Z,1.25
2019-02-19T03:35:01.000Z,1.312
2019-02-19T03:36:01.000Z,1.375
2019-02-19T03:37:02.000Z,1.437
2019-02-19T03:38:01.000Z,1.437
2019-02-19T03:39:02.000Z,1.375
2019-02-19T03:40:01.000Z,1.375
2019-02-19T03:41:02.000Z,1.375
2019-02-19T03:42:01.000Z,1.312
2019-02-19T03:43:02.000Z,1.312
2019-02-19T03:44:01.000Z,1.312
2019-02-19T03:45:01.000Z,1.312
2019-02-19T03:46:02.000Z,1.187
2019-02-19T03:47:01.000Z,1.187
2019-02-19T03:48:02.000Z,1.25
2019-02-19T03:49:01.000Z,1.187
2019-02-19T03:50:01.000Z,1.187
2019-02-19T03:51:02.000Z,1.125
2019-02-19T03:52:01.000Z,1.062
2019-02-19T03:53:01.000Z,0.937
2019-02-19T03:54:01.000Z,0.937
2019-02-19T03:55:01.000Z,0.875
2019-02-19T03:56:02.000Z,0.812
2019-02-19T03:57:01.000Z,0.812
2019-02-19T03:58:01.000Z,0.687
2019-02-19T03:59:02.000Z,0.687
2019-02-19T04:00:01.000Z,0.75
2019-02-19T04:01:01.000Z,0.75
2019-02-19T04:02:02.000Z,0.75
2019-02-19T04:03:01.000Z,0.687
2019-02-19T04:04:02.000Z,0.812
2019-02-19T04:05:01.000Z,0.875
2019-02-19T04:06:01.000Z,0.875
2019-02-19T04:07:02.000Z,0.875
2019-02-19T04:08:01.000Z,0.812
2019-02-19T04:09:02.000Z,0.875
2019-02-19T04:10:01.000Z,0.875
2019-02-19T04:11:01.000Z,0.937
2019-02-19T04:12:01.000Z,0.937
2019-02-19T04:13:01.000Z,0.937
2019-02-19T04:14:02.000Z,0.937
2019-02-19T04:15:01.000Z,0.937
2019-02-19T04:16:01.000Z,0.875
2019-02-19T04:17:01.000Z,0.875
2019-02-19T04:18:01.000Z,0.875
2019-02-19T04:19:02.000Z,0.937
2019-02-19T04:20:01.000Z,0.875
2019-02-19T04:21:02.000Z,0.937
2019-02-19T04:22:01.000Z,0.937
2019-02-19T04:23:01.000Z,0.937
2019-02-19T04:24:01.000Z,1
2019-02-19T04:25:01.000Z,1
2019-02-19T04:26:02.000Z,1
2019-02-19T04:27:01.000Z,1.062
2019-02-19T04:28:01.000Z,1.062
2019-02-19T04:29:02.000Z,1.062
2019-02-19T04:30:02.000Z,1.062
2019-02-19T04:31:01.000Z,1.062
2019-02-19T04:32:01.000Z,1
2019-02-19T04:33:01.000Z,0.937
2019-02-19T04:34:01.000Z,0.875
2019-02-19T04:35:01.000Z,0.875
2019-02-19T04:36:01.000Z,0.812
2019-02-19T04:37:01.000Z,0.75
2019-02-19T04:38:02.000Z,0.75
2019-02-19T04:39:01.000Z,0.75
2019-02-19T04:40:01.000Z,0.75
2019-02-19T04:41:02.000Z,0.75
2019-02-19T04:42:01.000Z,0.75
2019-02-19T04:43:02.000Z,0.687
2019-02-19T04:44:01.000Z,0.75
2019-02-19T04:45:01.000Z,0.75
2019-02-19T04:46:02.000Z,0.687
2019-02-19T04:47:01.000Z,0.687
2019-02-19T04:48:01.000Z,0.625
2019-02-19T04:49:02.000Z,0.562
2019-02-19T04:50:01.000Z,0.562
2019-02-19T04:51:01.000Z,0.562
2019-02-19T04:52:01.000Z,0.562
2019-02-19T04:53:01.000Z,0.562
2019-02-19T04:54:02.000Z,0.5
2019-02-19T04:55:01.000Z,0.5
2019-02-19T04:56:01.000Z,0.437
2019-02-19T04:57:01.000Z,0.437
2019-02-19T04:58:01.000Z,0.437
2019-02-19T04:59:02.000Z,0.437
2019-02-19T05:00:01.000Z,0.437
2019-02-19T05:01:01.000Z,0.375
2019-02-19T05:02:02.000Z,0.375
2019-02-19T05:03:01.000Z,0.312
2019-02-19T05:04:02.000Z,0.25
2019-02-19T05:05:01.000Z,0.187
2019-02-19T05:06:01.000Z,0.062
2019-02-19T05:07:02.000Z,0
2019-02-19T05:08:01.000Z,0
2019-02-19T05:09:02.000Z,-0.062
2019-02-19T05:10:01.000Z,-0.125
2019-02-19T05:11:01.000Z,-0.187
2019-02-19T05:12:02.000Z,-0.187
2019-02-19T05:13:01.000Z,-0.187
2019-02-19T05:14:01.000Z,-0.25
2019-02-19T05:15:01.000Z,-0.25
2019-02-19T05:16:01.000Z,-0.312
2019-02-19T05:17:02.000Z,-0.312
2019-02-19T05:18:01.000Z,-0.375
2019-02-19T05:19:01.000Z,-0.375
2019-02-19T05:20:02.000Z,-0.437
2019-02-19T05:21:01.000Z,-0.437
2019-02-19T05:22:02.000Z,-0.437
2019-02-19T05:23:01.000Z,-0.437
2019-02-19T05:24:02.000Z,-0.437
2019-02-19T05:25:01.000Z,-0.437
2019-02-19T05:26:02.000Z,-0.437
2019-02-19T05:27:01.000Z,-0.5
2019-02-19T05:28:02.000Z,-0.5
2019-02-19T05:29:01.000Z,-0.437
2019-02-19T05:30:01.000Z,-0.5
2019-02-19T05:31:02.000Z,-0.5
2019-02-19T05:32:01.000Z,-0.437
2019-02-19T05:33:02.000Z,-0.375
2019-02-19T05:34:01.000Z,-0.312
2019-02-19T05:35:01.000Z,-0.312
2019-02-19T05:36:02.000Z,-0.312
2019-02-19T05:37:01.000Z,-0.312
2019-02-19T05:38:01.000Z,-0.375
2019-02-19T05:39:02.000Z,-0.375
2019-02-19T05:40:01.000Z,-0.312
2019-02-19T05:41:02.000Z,-0.312
2019-02-19T05:42:02.000Z,-0.375
2019-02-19T05:43:01.000Z,-0.375
2019-02-19T05:44:01.000Z,-0.187
2019-02-19T05:45:02.000Z,-0.187
2019-02-19T05:46:01.000Z,-0.187
2019-02-19T05:47:01.000Z,-0.187
2019-02-19T05:48:01.000Z,-0.187
2019-02-19T05:49:01.000Z,-0.187
2019-02-19T05:50:02.000Z,-0.187
2019-02-19T05:51:01.000Z,-0.125
2019-02-19T05:52:02.000Z,-0.125
2019-02-19T05:53:01.000Z,-0.062
2019-02-19T05:54:01.000Z,-0.062
2019-02-19T05:55:01.000Z,0
2019-02-19T05:56:01.000Z,-0.062
2019-02-19T05:57:01.000Z,0
2019-02-19T05:58:02.000Z,0
2019-02-19T05:59:01.000Z,0
2019-02-19T06:00:01.000Z,0.062
2019-02-19T06:01:01.000Z,0.062
2019-02-19T06:02:01.000Z,0.125
2019-02-19T06:03:02.000Z,0.25
2019-02-19T06:04:01.000Z,0.312
2019-02-19T06:05:02.000Z,0.437
2019-02-19T06:06:01.000Z,0.562
2019-02-19T06:07:01.000Z,0.687
2019-02-19T06:08:01.000Z,0.812
2019-02-19T06:09:01.000Z,0.937
2019-02-19T06:10:01.000Z,1.125
2019-02-19T06:11:02.000Z,1.25
2019-02-19T06:12:01.000Z,1.437
2019-02-19T06:13:01.000Z,1.625
2019-02-19T06:14:02.000Z,1.687
2019-02-19T06:15:01.000Z,1.812
2019-02-19T06:16:02.000Z,1.937
2019-02-19T06:17:01.000Z,2
2019-02-19T06:18:02.000Z,2.125
2019-02-19T06:19:01.000Z,2.125
2019-02-19T06:20:02.000Z,2.187
2019-02-19T06:21:01.000Z,2.312
2019-02-19T06:22:01.000Z,2.437
2019-02-19T06:23:02.000Z,2.437
2019-02-19T06:24:01.000Z,2.5
2019-02-19T06:25:02.000Z,2.562
2019-02-19T06:26:01.000Z,2.562
2019-02-19T06:27:01.000Z,2.625
2019-02-19T06:28:01.000Z,2.687
2019-02-19T06:29:02.000Z,2.75
2019-02-19T06:30:01.000Z,2.812
2019-02-19T06:31:01.000Z,2.875
2019-02-19T06:32:01.000Z,2.937
2019-02-19T06:33:01.000Z,3
2019-02-19T06:34:01.000Z,3.125
2019-02-19T06:35:01.000Z,3.25
2019-02-19T06:36:01.000Z,3.312
2019-02-19T06:37:01.000Z,3.437
2019-02-19T06:38:01.000Z,3.562
2019-02-19T06:39:02.000Z,3.687
2019-02-19T06:40:01.000Z,3.812
2019-02-19T06:41:01.000Z,3.875
2019-02-19T06:42:01.000Z,3.937
2019-02-19T06:43:01.000Z,4
2019-02-19T06:44:01.000Z,4
2019-02-19T06:45:01.000Z,4
2019-02-19T06:46:02.000Z,4
2019-02-19T06:47:01.000Z,4
2019-02-19T06:48:01.000Z,4
2019-02-19T06:49:02.000Z,4
2019-02-19T06:50:01.000Z,4
2019-02-19T06:51:01.000Z,4.062
2019-02-19T06:52:01.000Z,4
2019-02-19T06:53:02.000Z,4.062
2019-02-19T06:54:01.000Z,4.062
2019-02-19T06:55:01.000Z,4.125
2019-02-19T06:56:01.000Z,4.125
2019-02-19T06:57:01.000Z,4.125
2019-02-19T06:58:02.000Z,4.187
2019-02-19T06:59:01.000Z,4.25
2019-02-19T07:00:01.000Z,4.25
2019-02-19T07:01:01.000Z,4.375
2019-02-19T07:02:02.000Z,4.437
2019-02-19T07:03:01.000Z,4.437
2019-02-19T07:04:01.000Z,4.562
2019-02-19T07:05:01.000Z,4.625
2019-02-19T07:06:02.000Z,4.687
2019-02-19T07:07:01.000Z,4.75
2019-02-19T07:08:01.000Z,4.812
2019-02-19T07:09:01.000Z,4.937
2019-02-19T07:10:01.000Z,5.062
2019-02-19T07:11:01.000Z,5.125
2019-02-19T07:12:01.000Z,5.187
2019-02-19T07:13:01.000Z,5.25
2019-02-19T07:14:01.000Z,5.312
2019-02-19T07:15:02.000Z,5.312
2019-02-19T07:16:01.000Z,5.375
2019-02-19T07:17:01.000Z,5.437
2019-02-19T07:18:02.000Z,5.437
2019-02-19T07:19:01.000Z,5.437
2019-02-19T07:20:01.000Z,5.437
2019-02-19T07:21:01.000Z,5.437
2019-02-19T07:22:01.000Z,5.437
2019-02-19T07:23:01.000Z,5.437
2019-02-19T07:24:02.000Z,5.437
2019-02-19T07:25:01.000Z,5.375
2019-02-19T07:26:02.000Z,5.375
2019-02-19T07:27:01.000Z,5.375
2019-02-19T07:28:02.000Z,5.375
2019-02-19T07:29:01.000Z,5.375
2019-02-19T07:30:02.000Z,5.375
2019-02-19T07:31:01.000Z,5.437
2019-02-19T07:32:02.000Z,5.437
2019-02-19T07:33:01.000Z,5.5
2019-02-19T07:34:01.000Z,5.5
2019-02-19T07:35:01.000Z,5.562
2019-02-19T07:36:01.000Z,5.625
2019-02-19T07:37:01.000Z,5.625
2019-02-19T07:38:01.000Z,5.625
2019-02-19T07:39:02.000Z,5.625
2019-02-19T07:40:01.000Z,5.625
2019-02-19T07:41:01.000Z,5.625
2019-02-19T07:42:01.000Z,5.625
2019-02-19T07:43:01.000Z,5.687
2019-02-19T07:44:01.000Z,5.75
2019-02-19T07:45:01.000Z,5.812
2019-02-19T07:46:01.000Z,5.812
2019-02-19T07:47:01.000Z,5.875
2019-02-19T07:48:01.000Z,5.937
2019-02-19T07:49:01.000Z,5.937
2019-02-19T07:50:01.000Z,6
2019-02-19T07:51:02.000Z,6.062
2019-02-19T07:52:01.000Z,6.125
2019-02-19T07:53:01.000Z,6.187
2019-02-19T07:54:01.000Z,6.25
2019-02-19T07:55:01.000Z,6.25
2019-02-19T07:56:02.000Z,6.312
2019-02-19T07:57:01.000Z,6.375
2019-02-19T07:58:01.000Z,6.437
2019-02-19T07:59:01.000Z,6.437
2019-02-19T08:00:01.000Z,6.5
2019-02-19T08:01:01.000Z,6.562
2019-02-19T08:02:01.000Z,6.562
2019-02-19T08:03:02.000Z,6.625
2019-02-19T08:04:01.000Z,6.687
2019-02-19T08:05:01.000Z,6.75
2019-02-19T08:06:01.000Z,6.75
2019-02-19T08:07:01.000Z,6.812
2019-02-19T08:08:02.000Z,6.875
2019-02-19T08:09:01.000Z,6.937
2019-02-19T08:10:01.000Z,7
2019-02-19T08:11:01.000Z,7
2019-02-19T08:12:01.000Z,7.062
2019-02-19T08:13:01.000Z,7.125
2019-02-19T08:14:01.000Z,7.187
2019-02-19T08:15:01.000Z,7.25
2019-02-19T08:16:02.000Z,7.25
2019-02-19T08:17:01.000Z,7.312
2019-02-19T08:18:01.000Z,7.312
2019-02-19T08:19:02.000Z,7.375
2019-02-19T08:20:01.000Z,7.437
2019-02-19T08:21:02.000Z,7.437
2019-02-19T08:22:01.000Z,7.437
2019-02-19T08:23:01.000Z,7.5
2019-02-19T08:24:01.000Z,7.562
2019-02-19T08:25:01.000Z,7.562
2019-02-19T08:26:02.000Z,7.562
2019-02-19T08:27:01.000Z,7.625
2019-02-19T08:28:02.000Z,7.625
2019-02-19T08:29:01.000Z,7.625
2019-02-19T08:30:01.000Z,7.687
2019-02-19T08:31:01.000Z,7.687
2019-02-19T08:32:01.000Z,7.687
2019-02-19T08:33:01.000Z,7.687
2019-02-19T08:34:02.000Z,7.75
2019-02-19T08:35:01.000Z,7.812
2019-02-19T08:36:02.000Z,7.812
2019-02-19T08:37:02.000Z,7.812
2019-02-19T08:38:01.000Z,7.875
2019-02-19T08:39:01.000Z,7.937
2019-02-19T08:40:01.000Z,7.937
2019-02-19T08:41:01.000Z,7.937
2019-02-19T08:42:02.000Z,8
2019-02-19T08:43:01.000Z,8.062
2019-02-19T08:44:01.000Z,8.062
2019-02-19T08:45:02.000Z,8.062
2019-02-19T08:46:02.000Z,8.062
2019-02-19T08:47:01.000Z,8.062
2019-02-19T08:48:02.000Z,8.125
2019-02-19T08:49:01.000Z,8.125
2019-02-19T08:50:01.000Z,8.125
2019-02-19T08:51:02.000Z,8.125
2019-02-19T08:52:01.000Z,8.187
2019-02-19T08:53:01.000Z,8.187
2019-02-19T08:54:01.000Z,8.25
2019-02-19T08:55:01.000Z,8.312
2019-02-19T08:56:02.000Z,8.312
2019-02-19T08:57:01.000Z,8.437
2019-02-19T08:58:01.000Z,8.5
2019-02-19T08:59:02.000Z,8.5
2019-02-19T09:00:01.000Z,8.5
2019-02-19T09:01:01.000Z,8.562
2019-02-19T09:02:01.000Z,8.562
2019-02-19T09:03:01.000Z,8.562
2019-02-19T09:04:01.000Z,8.562
2019-02-19T09:05:01.000Z,8.562
2019-02-19T09:06:01.000Z,8.562
2019-02-19T09:07:02.000Z,8.625
2019-02-19T09:08:01.000Z,8.625
2019-02-19T09:09:01.000Z,8.625
2019-02-19T09:10:01.000Z,8.687
2019-02-19T09:11:01.000Z,8.75
2019-02-19T09:12:02.000Z,8.812
2019-02-19T09:13:01.000Z,8.875
2019-02-19T09:14:02.000Z,8.937
2019-02-19T09:15:01.000Z,9
2019-02-19T09:16:01.000Z,9
2019-02-19T09:17:02.000Z,9.062
2019-02-19T09:18:01.000Z,9.062
2019-02-19T09:19:02.000Z,9.125
2019-02-19T09:20:01.000Z,9.125
2019-02-19T09:21:01.000Z,9.187
2019-02-19T09:22:02.000Z,9.187
2019-02-19T09:23:01.000Z,9.312
2019-02-19T09:24:01.000Z,9.375
2019-02-19T09:25:02.000Z,9.375
2019-02-19T09:26:01.000Z,9.437
2019-02-19T09:27:01.000Z,9.375
2019-02-19T09:28:02.000Z,9.437
2019-02-19T09:29:01.000Z,9.437
2019-02-19T09:30:01.000Z,9.437
2019-02-19T09:31:01.000Z,9.5
2019-02-19T09:32:01.000Z,9.5
2019-02-19T09:33:02.000Z,9.562
2019-02-19T09:34:01.000Z,9.5
2019-02-19T09:35:01.000Z,9.5
2019-02-19T09:36:01.000Z,9.5
2019-02-19T09:37:01.000Z,9.5
2019-02-19T09:38:02.000Z,9.5
2019-02-19T09:39:01.000Z,9.562
2019-02-19T09:40:02.000Z,9.437
2019-02-19T09:41:01.000Z,9.437
2019-02-19T09:42:02.000Z,9.5
2019-02-19T09:43:01.000Z,9.562
2019-02-19T09:44:01.000Z,9.625
2019-02-19T09:45:02.000Z,9.625
2019-02-19T09:46:01.000Z,9.625
2019-02-19T09:47:02.000Z,9.625
2019-02-19T09:48:01.000Z,9.562
2019-02-19T09:49:01.000Z,9.625
2019-02-19T09:50:02.000Z,9.625
2019-02-19T09:51:02.000Z,9.625
2019-02-19T09:52:01.000Z,9.625
2019-02-19T09:53:02.000Z,9.687
2019-02-19T09:54:01.000Z,9.687
2019-02-19T09:55:01.000Z,9.625
2019-02-19T09:56:01.000Z,9.625
2019-02-19T09:57:01.000Z,9.625
2019-02-19T09:58:02.000Z,9.625
2019-02-19T09:59:01.000Z,9.625
2019-02-19T10:00:01.000Z,9.687
2019-02-19T10:01:01.000Z,9.687
2019-02-19T10:02:01.000Z,9.75
2019-02-19T10:03:01.000Z,9.812
2019-02-19T10:04:01.000Z,9.812
2019-02-19T10:05:01.000Z,9.812
2019-02-19T10:06:01.000Z,9.812
2019-02-19T10:07:02.000Z,9.812
2019-02-19T10:08:01.000Z,9.812
2019-02-19T10:09:02.000Z,9.75
2019-02-19T10:10:01.000Z,9.75
2019-02-19T10:11:01.000Z,9.812
2019-02-19T10:12:02.000Z,9.812
2019-02-19T10:13:01.000Z,9.875
2019-02-19T10:14:02.000Z,9.937
2019-02-19T10:15:01.000Z,9.937
2019-02-19T10:16:01.000Z,9.937
2019-02-19T10:17:02.000Z,9.875
2019-02-19T10:18:01.000Z,9.875
2019-02-19T10:19:01.000Z,9.937
2019-02-19T10:20:01.000Z,9.875
2019-02-19T10:21:01.000Z,9.812
2019-02-19T10:22:02.000Z,9.875
2019-02-19T10:23:01.000Z,9.875
2019-02-19T10:24:02.000Z,9.937
2019-02-19T10:25:01.000Z,9.937
2019-02-19T10:26:01.000Z,9.875
2019-02-19T10:27:01.000Z,9.875
2019-02-19T10:28:01.000Z,9.875
2019-02-19T10:29:01.000Z,9.812
2019-02-19T10:30:01.000Z,9.75
2019-02-19T10:31:01.000Z,9.687
2019-02-19T10:32:01.000Z,9.687
2019-02-19T10:33:01.000Z,9.687
2019-02-19T10:34:01.000Z,9.625
2019-02-19T10:35:02.000Z,9.625
2019-02-19T10:36:01.000Z,9.562
2019-02-19T10:37:02.000Z,9.562
2019-02-19T10:38:01.000Z,9.5
2019-02-19T10:39:01.000Z,9.5
2019-02-19T10:40:01.000Z,9.5
2019-02-19T10:41:02.000Z,9.5
2019-02-19T10:42:01.000Z,9.5
2019-02-19T10:43:01.000Z,9.562
2019-02-19T10:44:01.000Z,9.562
2019-02-19T10:45:01.000Z,9.625
2019-02-19T10:46:02.000Z,9.687
2019-02-19T10:47:01.000Z,9.687
2019-02-19T10:48:01.000Z,9.75
2019-02-19T10:49:02.000Z,9.687
2019-02-19T10:50:01.000Z,9.75
2019-02-19T10:51:02.000Z,9.75
2019-02-19T10:52:01.000Z,9.812
2019-02-19T10:53:01.000Z,9.812
2019-02-19T10:54:01.000Z,9.687
2019-02-19T10:55:01.000Z,9.625
2019-02-19T10:56:02.000Z,9.687
2019-02-19T10:57:01.000Z,9.687
2019-02-19T10:58:01.000Z,9.625
2019-02-19T10:59:01.000Z,9.75
2019-02-19T11:00:01.000Z,9.812
2019-02-19T11:01:01.000Z,9.812
2019-02-19T11:02:01.000Z,9.812
2019-02-19T11:03:02.000Z,10
2019-02-19T11:04:01.000Z,10
2019-02-19T11:05:01.000Z,9.937
2019-02-19T11:06:01.000Z,10
2019-02-19T11:07:01.000Z,10.062
2019-02-19T11:08:01.000Z,10.125
2019-02-19T11:09:01.000Z,10.125
2019-02-19T11:10:01.000Z,10.187
2019-02-19T11:11:01.000Z,10.25
2019-02-19T11:12:01.000Z,10.25
2019-02-19T11:13:02.000Z,10.375
2019-02-19T11:14:01.000Z,10.437
2019-02-19T11:15:01.000Z,10.5
2019-02-19T11:16:01.000Z,10.375
2019-02-19T11:17:02.000Z,10.312
2019-02-19T11:18:01.000Z,10.25
2019-02-19T11:19:01.000Z,10.25
2019-02-19T11:20:02.000Z,10.25
2019-02-19T11:21:01.000Z,10.125
2019-02-19T11:22:01.000Z,10.125
2019-02-19T11:23:01.000Z,10.187
2019-02-19T11:24:01.000Z,10.125
2019-02-19T11:25:02.000Z,10.062
2019-02-19T11:26:01.000Z,10.125
2019-02-19T11:27:01.000Z,10.125
2019-02-19T11:28:02.000Z,10.125
2019-02-19T11:29:01.000Z,10.125
2019-02-19T11:30:02.000Z,10.125
2019-02-19T11:31:01.000Z,10.125
2019-02-19T11:32:02.000Z,10.125
2019-02-19T11:33:01.000Z,10.125
2019-02-19T11:34:01.000Z,10.062
2019-02-19T11:35:01.000Z,10
2019-02-19T11:36:01.000Z,10
2019-02-19T11:37:02.000Z,10
2019-02-19T11:38:01.000Z,10.062
2019-02-19T11:39:01.000Z,10
2019-02-19T11:40:01.000Z,10.062
2019-02-19T11:41:01.000Z,10
2019-02-19T11:42:01.000Z,9.937
2019-02-19T11:43:01.000Z,9.937
2019-02-19T11:44:01.000Z,9.937
2019-02-19T11:45:02.000Z,9.937
2019-02-19T11:46:01.000Z,9.875
2019-02-19T11:47:01.000Z,9.875
2019-02-19T11:48:01.000Z,9.812
2019-02-19T11:49:01.000Z,9.812
2019-02-19T11:50:02.000Z,9.75
2019-02-19T11:51:01.000Z,9.75
2019-02-19T11:52:01.000Z,9.687
2019-02-19T11:53:01.000Z,9.75
2019-02-19T11:54:01.000Z,9.75
2019-02-19T11:55:02.000Z,9.812
2019-02-19T11:56:01.000Z,9.75
2019-02-19T11:57:01.000Z,9.687
2019-02-19T11:58:02.000Z,9.687
2019-02-19T11:59:01.000Z,9.687
2019-02-19T12:00:01.000Z,9.687
2019-02-19T12:01:01.000Z,9.75
2019-02-19T12:02:01.000Z,9.812
2019-02-19T12:03:01.000Z,9.875
2019-02-19T12:04:01.000Z,9.812
2019-02-19T12:05:01.000Z,9.812
2019-02-19T12:06:01.000Z,9.875
2019-02-19T12:07:01.000Z,10
2019-02-19T12:08:02.000Z,10.062
2019-02-19T12:09:01.000Z,10.187
2019-02-19T12:10:02.000Z,10.312
2019-02-19T12:11:01.000Z,10.312
2019-02-19T12:12:01.000Z,10.375
2019-02-19T12:13:01.000Z,10.312
2019-02-19T12:14:01.000Z,10.312
2019-02-19T12:15:02.000Z,10.312
2019-02-19T12:16:01.000Z,10.437
2019-02-19T12:17:02.000Z,10.375
2019-02-19T12:18:01.000Z,10.312
2019-02-19T12:19:01.000Z,10.25
2019-02-19T12:20:01.000Z,10.25
2019-02-19T12:21:01.000Z,10.25
2019-02-19T12:22:02.000Z,10.312
2019-02-19T12:23:01.000Z,10.437
2019-02-19T12:24:01.000Z,10.5
2019-02-19T12:25:02.000Z,10.562
2019-02-19T12:26:01.000Z,10.625
2019-02-19T12:27:02.000Z,10.687
2019-02-19T12:28:01.000Z,10.687
2019-02-19T12:29:01.000Z,10.812
2019-02-19T12:30:01.000Z,10.687
2019-02-19T12:31:01.000Z,10.75
2019-02-19T12:32:01.000Z,10.75
2019-02-19T12:33:02.000Z,10.75
2019-02-19T12:34:01.000Z,10.812
2019-02-19T12:35:01.000Z,10.812
2019-02-19T12:36:02.000Z,10.75
2019-02-19T12:37:01.000Z,10.687
2019-02-19T12:38:01.000Z,10.562
2019-02-19T12:39:01.000Z,10.5
2019-02-19T12:40:01.000Z,10.5
2019-02-19T12:41:01.000Z,10.5
2019-02-19T12:42:01.000Z,10.5
2019-02-19T12:43:02.000Z,10.562
2019-02-19T12:44:01.000Z,10.625
2019-02-19T12:45:02.000Z,10.687
2019-02-19T12:46:01.000Z,10.687
2019-02-19T12:47:01.000Z,10.75
2019-02-19T12:48:01.000Z,10.75
2019-02-19T12:49:01.000Z,10.812
2019-02-19T12:50:02.000Z,10.75
2019-02-19T12:51:01.000Z,10.625
2019-02-19T12:52:02.000Z,10.625
2019-02-19T12:53:01.000Z,10.625
2019-02-19T12:54:01.000Z,10.625
2019-02-19T12:55:01.000Z,10.625
2019-02-19T12:56:01.000Z,10.437
2019-02-19T12:57:01.000Z,10.375